Latest Weather Observations for Kuitpo

IDS60901

Issued at 7:05 pm CST Monday 15 September 2014 (issued every 10 minutes, with the page automatically refreshed every 10 minutes)

About weather observations | Map of Adelaide area stations | Latest observations for Adelaide area | Other Formats
Station Details ID: 023887 Name: KUITPO FOREST RESERVE Lat: -35.17 Lon: 138.68 Height: 365.0 m
Data from the previous 72 hours. | See also: Recent months at Kuitpo
Date/Time
CST
Tmp

°C
App
Tmp
°C
Dew
Point
°C
Rel
Hum
%
Delta-T

°C
Wind Press
QNH
hPa
Press
MSL
hPa
Rain
since
9 am
mm
Dir
 
Spd
km/h
Gust
km/h
Spd
kts
Gust
kts
15/07:00pm 10.1 6.4 10.1 100 0.0 SSW 20 33 11 18 1014.3 1014.1 1.8
15/06:30pm 10.2 6.1 10.2 100 0.0 SW 22 44 12 24 1013.8 1013.6 1.8
15/06:00pm 10.3 6.3 10.3 100 0.0 SSW 22 37 12 20 1013.5 1013.3 1.6
15/05:30pm 10.7 7.1 10.7 100 0.0 SW 20 32 11 17 1013.0 1012.9 0.2
15/05:00pm 10.8 6.8 10.5 98 0.2 SW 22 37 12 20 1012.8 1012.7 0.0
15/04:30pm 11.5 8.3 9.9 90 0.8 SW 17 28 9 15 1012.5 1012.4 0.0
15/04:00pm 11.2 7.2 10.4 95 0.4 SW 22 35 12 19 1012.3 1012.2 0.0
15/03:30pm 11.8 8.1 10.0 89 0.9 WSW 20 30 11 16 1012.0 1011.8 0.0
15/03:00pm 12.1 8.0 10.0 87 1.1 SW 22 33 12 18 1011.8 1011.6 0.0
15/02:30pm 11.9 8.0 10.8 93 0.6 SW 22 35 12 19 1011.5 1011.3 0.0
15/02:00pm 13.9 8.1 9.3 74 2.4 SW 30 52 16 28 1011.1 1010.9 0.0
15/01:46pm 13.4 7.8 8.7 73 2.4 SSW 28 46 15 25 1011.1 1010.9 0.0
15/01:30pm 13.1 7.9 8.8 75 2.2 SW 26 41 14 22 1011.1 1010.9 0.0
15/01:00pm 13.3 8.9 9.0 75 2.2 SSW 22 41 12 22 1010.5 1010.3 0.0
15/12:34pm 13.4 7.9 9.1 75 2.2 SSW 28 52 15 28 1010.2 1010.1 0.0
15/12:30pm 13.3 8.6 9.2 76 2.1 SSW 24 44 13 24 1010.1 1010.0 0.0
15/12:00pm 13.8 9.6 9.6 76 2.2 SSW 22 37 12 20 1009.9 1009.8 0.0
15/11:30am 12.8 7.2 8.9 77 2.0 SSW 28 46 15 25 1009.5 1009.3 0.0
15/11:24am 12.9 7.4 9.2 78 1.9 SSW 28 46 15 25 1009.4 1009.2 0.0
15/11:00am 13.7 9.4 9.2 74 2.3 SSW 22 35 12 19 1009.2 1009.0 0.0
15/10:30am 13.7 10.0 10.1 79 1.9 SW 20 33 11 18 1008.8 1008.6 0.0
15/10:00am 13.5 10.5 10.7 83 1.5 WSW 17 26 9 14 1008.7 1008.5 0.0
15/09:30am 12.5 10.8 12.5 100 0.0 W 13 20 7 11 1008.6 1008.4 0.0
15/09:00am 11.8 8.8 11.8 100 0.0 W 19 32 10 17 1008.3 1008.1 0.0
15/08:30am 11.7 9.0 11.7 100 0.0 WNW 17 28 9 15 1007.9 1007.7 0.0
15/08:00am 11.3 7.9 11.3 100 0.0 WNW 20 32 11 17 1008.0 1007.8 0.0
15/07:30am 10.9 7.6 10.9 100 0.0 NW 19 30 10 16 1007.8 1007.6 0.0
15/07:00am 10.7 7.1 10.7 100 0.0 NNW 20 33 11 18 1007.7 1007.5 0.0
15/06:30am 10.5 7.5 10.5 100 0.0 NNW 17 28 9 15 1007.9 1007.7 0.0
15/06:00am 10.4 7.0 10.4 100 0.0 NW 19 32 10 17 1007.8 1007.6 0.0
15/05:30am 10.6 7.2 10.6 100 0.0 NW 19 32 10 17 1007.7 1007.5 0.0
15/05:00am 10.8 7.1 10.3 97 0.3 NW 20 30 11 16 1008.0 1007.8 0.0
15/04:30am 10.8 6.8 10.3 97 0.3 NNW 22 35 12 19 1008.1 1007.9 0.0
15/04:00am 10.8 6.3 10.2 96 0.3 NW 24 33 13 18 1008.0 1007.8 0.0
15/03:30am 10.7 6.5 9.9 95 0.4 NW 22 32 12 17 1008.2 1008.0 0.0
15/03:00am 10.9 7.4 10.1 95 0.4 NNW 19 32 10 17 1008.6 1008.4 0.0
15/02:30am 11.0 8.2 9.9 93 0.6 NW 15 22 8 12 1008.9 1008.7 0.0
15/02:00am 11.4 8.6 10.1 92 0.7 NW 15 24 8 13 1009.3 1009.1 0.0
15/01:30am 11.5 8.1 10.7 95 0.4 NW 19 28 10 15 1009.8 1009.7 0.0
15/01:00am 11.8 9.5 11.8 100 0.0 NW 15 24 8 13 1010.1 1010.0 0.0
15/12:30am 12.2 9.1 12.2 100 0.0 WNW 20 30 11 16 1010.5 1010.3 0.0
15/12:00am 12.6 9.8 11.5 93 0.6 WNW 17 26 9 14 1010.9 1010.7 0.0
 
Date/Time
CST
Tmp

°C
App
Tmp
°C
Dew
Point
°C
Rel
Hum
%
Delta-T

°C
Wind Press
QNH
hPa
Press
MSL
hPa
Rain
since
9 am
mm
Dir
 
Spd
km/h
Gust
km/h
Spd
kts
Gust
kts
14/11:30pm 14.5 10.4 8.0 65 3.3 W 19 26 10 14 1011.0 1010.8 0.0
14/11:00pm 14.7 11.9 7.0 60 3.8 NNE 11 17 6 9 1010.9 1010.7 0.0
14/10:30pm 15.1 11.6 7.2 59 4.0 NNE 15 24 8 13 1011.4 1011.2 0.0
14/10:00pm 15.6 10.4 7.1 57 4.3 NE 24 35 13 19 1011.3 1011.1 0.0
14/09:30pm 15.8 10.3 7.6 58 4.2 NE 26 37 14 20 1011.3 1011.1 0.0
14/09:00pm 15.5 10.1 7.8 60 3.9 NE 26 39 14 21 1011.4 1011.2 0.0
14/08:30pm 15.4 10.7 7.9 61 3.8 NE 22 30 12 16 1011.7 1011.5 0.0
14/08:00pm 15.5 11.3 8.3 62 3.7 ENE 20 33 11 18 1012.0 1011.8 0.0
14/07:30pm 14.7 11.2 8.6 67 3.1 ENE 17 30 9 16 1012.3 1012.2 0.0
14/07:00pm 14.7 11.2 8.6 67 3.1 ENE 17 26 9 14 1012.6 1012.5 0.0
14/06:30pm 15.1 11.1 9.0 67 3.2 E 20 28 11 15 1012.9 1012.8 0.0
14/06:00pm 15.2 11.3 9.3 68 3.1 E 20 28 11 15 1013.5 1013.3 0.0
14/05:30pm 15.4 11.8 9.7 69 3.0 E 19 26 10 14 1013.5 1013.3 0.0
14/05:00pm 16.2 12.7 10.3 68 3.2 E 19 24 10 13 1013.2 1013.1 0.0
14/04:30pm 16.5 12.8 10.1 66 3.4 E 20 33 11 18 1013.2 1013.1 0.0
14/04:00pm 16.9 12.8 10.1 64 3.7 E 22 28 12 15 1013.4 1013.2 0.0
14/03:30pm 17.1 13.1 10.5 65 3.6 E 22 32 12 17 1014.0 1013.8 0.0
14/03:00pm 17.2 13.6 10.6 65 3.6 E 20 32 11 17 1014.2 1014.0 0.0
14/02:30pm 17.5 13.8 11.5 68 3.3 ESE 22 30 12 16 1014.5 1014.4 0.0
14/02:00pm 18.2 15.2 12.0 67 3.5 ESE 19 28 10 15 1014.9 1014.8 0.0
14/01:30pm 17.7 14.7 11.9 69 3.2 ESE 19 26 10 14 1015.5 1015.4 0.0
14/01:00pm 18.2 16.0 12.0 67 3.5 ESE 15 22 8 12 1015.6 1015.5 0.0
14/12:30pm 17.7 15.4 11.7 68 3.3 E 15 20 8 11 1016.0 1015.9 0.0
14/12:00pm 16.6 14.0 10.7 68 3.2 E 15 20 8 11 1016.8 1016.7 0.0
14/11:30am 15.8 12.8 10.6 71 2.8 E 17 22 9 12 1017.4 1017.3 0.0
14/11:00am 14.8 11.5 9.6 71 2.7 E 17 24 9 13 1017.7 1017.6 0.0
14/10:30am 15.7 12.8 9.8 68 3.1 ESE 15 20 8 11 1018.1 1018.0 0.0
14/10:00am 15.0 13.1 10.4 74 2.5 ESE 11 19 6 10 1018.2 1018.1 0.0
14/09:30am 14.6 12.1 9.8 73 2.5 ESE 13 17 7 9 1018.3 1018.2 0.0
14/09:00am 14.0 11.2 8.6 70 2.8 ESE 13 17 7 9 1018.4 1018.3 0.0
14/08:30am 12.6 10.4 7.7 72 2.4 ESE 9 13 5 7 1018.4 1018.3 0.0
14/08:00am 12.3 8.3 6.6 68 2.8 ENE 17 20 9 11 1017.9 1017.8 0.0
14/07:30am 11.3 7.3 6.6 73 2.3 E 17 20 9 11 1018.0 1017.9 0.0
14/07:00am 9.6 5.8 6.0 78 1.7 E 15 20 8 11 1018.0 1017.9 0.0
14/06:30am 9.3 6.6 5.7 78 1.7 ENE 9 13 5 7 1018.2 1018.1 0.0
14/06:00am 8.7 5.4 4.7 76 1.8 ENE 11 15 6 8 1017.9 1017.8 0.0
14/05:30am 9.6 6.5 5.4 75 1.9 E 11 13 6 7 1017.7 1017.6 0.0
14/05:00am 10.3 7.5 5.3 71 2.3 E 9 13 5 7 1017.7 1017.6 0.0
14/04:30am 9.7 6.6 5.7 76 1.9 ENE 11 15 6 8 1017.5 1017.4 0.0
14/04:00am 9.6 6.6 6.0 78 1.7 ENE 11 15 6 8 1017.5 1017.4 0.0
14/03:30am 9.0 6.0 6.1 82 1.4 E 11 13 6 7 1017.6 1017.5 0.0
14/03:00am 8.0 4.6 6.0 87 0.9 ESE 13 15 7 8 1017.8 1017.7 0.0
14/02:30am 7.6 4.4 5.2 85 1.1 E 11 13 6 7 1018.1 1018.0 0.0
14/02:00am 9.3 6.3 6.0 80 1.5 NE 11 15 6 8 1018.3 1018.2 0.0
14/01:30am 9.0 6.1 6.4 84 1.2 NE 11 15 6 8 1018.4 1018.3 0.0
14/01:00am 8.7 5.1 6.7 87 0.9 NE 15 19 8 10 1018.8 1018.7 0.0
14/12:30am 9.1 6.3 6.9 86 1.0 NNE 11 15 6 8 1019.3 1019.2 0.0
14/12:00am 9.5 7.1 6.8 83 1.3 NE 9 15 5 8 1019.6 1019.5 0.0
 
Date/Time
CST
Tmp

°C
App
Tmp
°C
Dew
Point
°C
Rel
Hum
%
Delta-T

°C
Wind Press
QNH
hPa
Press
MSL
hPa
Rain
since
9 am
mm
Dir
 
Spd
km/h
Gust
km/h
Spd
kts
Gust
kts
13/11:30pm 10.0 7.3 7.3 83 1.3 NE 11 13 6 7 1020.0 1019.9 0.0
13/11:00pm 9.8 7.4 7.2 84 1.3 NNE 9 11 5 6 1020.3 1020.2 0.0
13/10:30pm 10.1 7.7 6.8 80 1.6 NE 9 13 5 7 1020.5 1020.4 0.0
13/10:00pm 11.2 8.7 6.7 74 2.2 NE 9 11 5 6 1020.6 1020.5 0.0
13/09:30pm 10.9 7.9 6.1 72 2.3 E 11 13 6 7 1020.7 1020.6 0.0
13/09:00pm 11.8 9.3 6.5 70 2.6 ESE 9 11 5 6 1020.8 1020.7 0.0
13/08:30pm 11.5 8.9 6.2 70 2.5 SE 9 11 5 6 1020.8 1020.7 0.0
13/08:00pm 12.4 10.3 6.5 67 2.9 WSW 7 11 4 6 1020.9 1020.8 0.0
13/07:30pm 12.9 10.4 6.5 65 3.1 W 9 13 5 7 1020.9 1020.8 0.0
13/07:00pm 14.0 10.7 6.6 61 3.6 WNW 13 17 7 9 1020.4 1020.3 0.0
13/06:30pm 14.1 11.2 6.7 61 3.6 W 11 15 6 8 1020.2 1020.1 0.0
13/06:00pm 15.2 11.9 6.2 55 4.4 WNW 13 19 7 10 1020.0 1019.9 0.0
13/05:30pm 16.5 13.3 6.9 53 4.8 WNW 13 19 7 10 1019.8 1019.7 0.0
13/05:00pm 17.0 13.8 6.8 51 5.1 NW 13 20 7 11 1019.5 1019.4 0.0
13/04:30pm 17.2 13.8 6.1 48 5.5 NW 13 24 7 13 1019.4 1019.3 0.0
13/04:00pm 17.5 14.1 6.1 47 5.7 NW 13 22 7 12 1019.5 1019.4 0.0
13/03:30pm 17.7 13.9 5.9 46 5.9 WNW 15 22 8 12 1019.6 1019.5 0.0
13/03:00pm 17.7 14.1 6.9 49 5.5 WNW 15 24 8 13 1019.8 1019.7 0.0
13/02:30pm 17.7 13.7 6.6 48 5.6 WNW 17 26 9 14 1019.9 1019.8 0.0
13/02:00pm 17.6 14.0 6.8 49 5.5 NW 15 22 8 12 1020.3 1020.2 0.0
13/01:30pm 16.9 12.5 6.7 51 5.1 WNW 19 26 10 14 1020.7 1020.6 0.0
13/01:00pm 17.0 13.5 7.1 52 5.0 WNW 15 26 8 14 1021.0 1020.9 0.0
13/12:30pm 17.4 13.4 6.6 49 5.4 NNW 17 28 9 15 1021.2 1021.1 0.0
13/12:00pm 17.4 14.1 6.6 49 5.4 NNW 13 24 7 13 1021.6 1021.6 0.0
13/11:30am 17.1 13.5 6.9 51 5.1 NNW 15 24 8 13 1021.8 1021.8 0.0
13/11:00am 16.7 13.6 7.1 53 4.9 NW 13 22 7 12 1022.2 1022.1 0.0
13/10:30am 15.2 10.9 5.4 52 4.7 NW 17 22 9 12 1022.8 1022.7 0.0
13/10:00am 14.8 11.9 6.6 58 4.1 NW 11 19 6 10 1023.1 1023.0 0.0
13/09:30am 13.8 10.9 6.4 61 3.6 NW 11 19 6 10 1023.3 1023.2 0.0
13/09:00am 13.2 11.1 6.5 64 3.3 NNW 7 11 4 6 1023.3 1023.2 0.0
13/08:30am 11.7 9.4 5.6 66 2.9 NNE 7 9 4 5 1023.3 1023.2 0.0
13/08:00am 10.1 6.9 5.1 71 2.3 NNE 11 15 6 8 1023.2 1023.1 0.0
13/07:30am 8.5 4.1 4.7 77 1.7 NNE 17 24 9 13 1023.0 1022.9 0.0
13/07:00am 7.4 2.6 4.9 84 1.1 NE 19 26 10 14 1022.9 1022.8 0.0
13/06:30am 6.5 1.5 4.7 88 0.8 NE 20 28 11 15 1022.8 1022.7 0.0
13/06:00am 6.4 1.4 4.7 89 0.8 ENE 20 28 11 15 1022.8 1022.7 0.0
13/05:30am 6.4 1.4 4.6 88 0.8 ENE 20 28 11 15 1022.8 1022.7 0.0
13/05:00am 6.6 1.6 4.6 87 0.9 ENE 20 28 11 15 1022.8 1022.7 0.0
13/04:30am 6.5 1.5 4.5 87 0.9 ENE 20 28 11 15 1022.7 1022.6 0.0
13/04:00am 6.9 1.9 4.4 84 1.1 ENE 20 26 11 14 1023.0 1022.9 0.0
13/03:30am 7.1 2.1 4.6 84 1.1 ENE 20 26 11 14 1023.3 1023.2 0.0
13/03:00am 7.1 2.3 4.9 86 1.0 ENE 19 22 10 12 1023.4 1023.3 0.0
13/02:30am 7.1 2.4 5.1 87 0.9 ENE 19 22 10 12 1023.7 1023.6 0.0
13/02:00am 7.2 2.6 5.5 89 0.8 NE 19 24 10 13 1023.8 1023.8 0.0
13/01:30am 7.2 2.6 5.8 91 0.6 ENE 19 26 10 14 1023.9 1023.9 0.0
13/01:00am 7.2 2.5 6.0 92 0.6 ENE 20 26 11 14 1024.1 1024.1 0.0
13/12:30am 7.4 2.9 5.9 90 0.7 ENE 19 22 10 12 1024.2 1024.2 0.0
13/12:00am 7.9 3.6 5.4 84 1.1 ENE 17 20 9 11 1024.5 1024.5 0.0
 
Date/Time
CST
Tmp

°C
App
Tmp
°C
Dew
Point
°C
Rel
Hum
%
Delta-T

°C
Wind Press
QNH
hPa
Press
MSL
hPa
Rain
since
9 am
mm
Dir
 
Spd
km/h
Gust
km/h
Spd
kts
Gust
kts
12/11:30pm 8.1 3.5 5.7 85 1.1 ENE 19 22 10 12 1024.5 1024.5 0.0
12/11:00pm 8.0 4.3 6.1 88 0.9 ENE 15 19 8 10 1024.7 1024.7 0.0
12/10:30pm 8.1 3.6 5.9 86 1.0 E 19 22 10 12 1024.9 1024.8 0.0
12/10:00pm 8.0 3.3 5.3 83 1.2 E 19 22 10 12 1025.1 1025.0 0.0
12/09:30pm 7.9 3.4 5.9 87 0.9 ESE 19 22 10 12 1025.2 1025.1 0.0
12/09:00pm 8.0 3.9 6.0 87 0.9 ESE 17 22 9 12 1025.3 1025.2 0.0
12/08:30pm 8.1 3.9 5.9 86 1.0 SE 17 20 9 11 1025.2 1025.1 0.0
12/08:00pm 8.1 4.3 5.7 85 1.1 SE 15 20 8 11 1025.1 1025.0 0.0
12/07:30pm 8.4 4.6 5.9 84 1.2 SE 15 19 8 10 1025.2 1025.1 0.0

Latest Capital City Observations: Canberra | Sydney | Melbourne | Brisbane | Adelaide | Perth | Hobart | Darwin

Other Formats:

Comma delimited format used in spreadsheet applications
http://www.bom.gov.au/fwo/IDS60901/IDS60901.94683.axf

JavaScript Object Notation format (JSON) in row-major order
http://www.bom.gov.au/fwo/IDS60901/IDS60901.94683.json